Terminal Aerodrome Forecast
Issued by NWS Caribou, ME

Home | Current Version | Previous Version | Text Only | Print | Product List | Glossary On
Versions: 1 2 3 4 5 6 7 8 9 10 11 12 13
000
FTUS41 KCAR 260536
TAFBGR
TAF
KBGR 260536Z 2606/2706 20006KT P6SM BKN060
     FM260900 20006KT 5SM BR OVC020
     FM261100 22006KT 5SM BR OVC010
     FM261300 24006KT P6SM BKN015
     FM261500 24008KT P6SM VCSH BKN050
     FM262100 24008KT P6SM BKN050=

USA.gov is the U.S. government's official web portal to all federal, state and local government web resources and services.